Time;durP1;ratioP1;P1;durP2;ratioP2;P2;SDS_P1;SDS_P2;PMS_P1;PMS_P2;Temp;Humidity;BMP_temperature;BMP_pressure;BME280_temperature;BME280_humidity;BME280_pressure;Samples;Min_cycle;Max_cycle;Signal;HPM_P1;HPM_P2
2021/09/27 00:01:43;;;;;;;0.80;0.80;;;;;;;11.50;92.04;102696.69;6261473;28;20430;-72
2021/09/27 00:04:49;;;;;;;2.17;1.00;;;;;;;11.50;92.43;102695.81;6262218;28;20405;-72
2021/09/27 00:07:53;;;;;;;2.53;1.58;;;;;;;11.53;91.93;102695.47;6262701;28;20266;-72
2021/09/27 00:11:01;;;;;;;0.90;0.90;;;;;;;11.37;92.70;102701.00;6262277;28;20255;-72
2021/09/27 00:14:06;;;;;;;1.10;0.80;;;;;;;11.45;92.47;102692.78;6261897;28;20192;-72
2021/09/27 00:17:14;;;;;;;0.80;0.80;;;;;;;11.46;92.07;102698.06;6262339;28;20254;-72
2021/09/27 00:20:19;;;;;;;1.05;0.95;;;;;;;11.33;93.23;102698.63;6262142;28;20195;-71
2021/09/27 00:23:24;;;;;;;0.90;0.90;;;;;;;11.33;93.38;102695.91;6261150;28;20184;-71
2021/09/27 00:26:30;;;;;;;0.90;0.90;;;;;;;11.47;92.28;102698.91;6262193;28;20185;-71
2021/09/27 00:29:34;;;;;;;0.70;0.70;;;;;;;11.37;93.36;102695.53;6261129;28;20405;-72
2021/09/27 00:32:39;;;;;;;0.90;0.90;;;;;;;11.37;93.57;102695.53;6262337;28;20280;-71
2021/09/27 00:35:44;;;;;;;2.65;1.00;;;;;;;11.32;94.14;102696.09;6261038;28;20493;-71
2021/09/27 00:38:48;;;;;;;1.60;0.98;;;;;;;11.38;93.78;102691.75;6260983;28;20512;-71
2021/09/27 00:41:53;;;;;;;2.75;0.93;;;;;;;11.38;93.79;102686.28;6261375;28;20196;-72
2021/09/27 00:44:57;;;;;;;2.00;0.90;;;;;;;11.42;93.45;102691.25;6260929;28;20185;-72
2021/09/27 00:48:04;;;;;;;0.90;0.70;;;;;;;11.35;93.58;102697.59;6261883;28;20185;-72
2021/09/27 00:51:13;;;;;;;0.73;0.73;;;;;;;11.33;93.51;102695.91;6264630;28;20231;-71
2021/09/27 00:54:21;;;;;;;0.90;0.90;;;;;;;11.35;93.48;102692.97;6266716;28;20185;-71
2021/09/27 00:57:27;;;;;;;0.88;0.82;;;;;;;11.48;92.26;102697.91;6266619;28;20225;-71
2021/09/27 01:00:32;;;;;;;0.90;0.90;;;;;;;11.40;92.75;102689.72;6265226;28;20385;-72
2021/09/27 01:03:38;;;;;;;1.13;0.80;;;;;;;11.35;92.97;102703.06;6264948;28;20297;-71
2021/09/27 01:07:06;;;;;;;1.00;1.00;;;;;;;11.35;93.08;102703.91;6265533;28;20251;-71
2021/09/27 01:10:30;;;;;;;4.18;0.90;;;;;;;11.57;91.72;102702.28;6264999;28;20523;-72
2021/09/27 01:13:48;;;;;;;0.85;0.85;;;;;;;11.45;91.84;102701.84;6264942;28;20193;-71
2021/09/27 01:17:00;;;;;;;1.08;0.90;;;;;;;11.39;92.58;102709.88;6264909;28;20220;-71
2021/09/27 01:20:37;;;;;;;0.90;0.90;;;;;;;11.43;92.21;102706.59;6264826;28;20185;-71
2021/09/27 01:24:07;;;;;;;0.80;0.80;;;;;;;11.32;93.85;102709.75;6265992;28;20185;-72
2021/09/27 01:28:05;;;;;;;1.55;0.98;;;;;;;11.36;93.55;102711.09;6265677;28;20192;-71
2021/09/27 01:31:34;;;;;;;1.00;1.00;;;;;;;11.28;93.56;102709.25;6199920;28;20228;-71
2021/09/27 01:34:45;;;;;;;0.88;0.80;;;;;;;11.23;93.95;102711.66;6265801;28;20191;-71
2021/09/27 01:37:58;;;;;;;0.80;0.80;;;;;;;11.15;94.34;102703.47;6265273;28;20231;-71
2021/09/27 01:41:12;;;;;;;0.80;0.70;;;;;;;11.38;93.82;102709.03;6265389;28;20189;-71
2021/09/27 01:44:25;;;;;;;0.73;0.73;;;;;;;11.48;92.44;102703.38;6264229;28;20189;-71
2021/09/27 01:47:33;;;;;;;0.90;0.90;;;;;;;11.41;92.73;102710.53;6264200;28;20558;-71
2021/09/27 01:50:44;;;;;;;1.65;1.20;;;;;;;11.39;92.07;102709.88;6264654;28;20296;-71
2021/09/27 01:53:52;;;;;;;2.05;0.80;;;;;;;11.30;92.13;102698.97;6264862;28;20192;-71
2021/09/27 01:57:08;;;;;;;1.35;0.93;;;;;;;11.24;92.59;102709.78;6263828;28;20192;-72
2021/09/27 02:00:17;;;;;;;1.48;0.85;;;;;;;11.22;92.34;102709.09;6265009;28;20225;-71
2021/09/27 02:03:27;;;;;;;0.80;0.80;;;;;;;11.12;93.40;102698.34;6264088;28;20228;-72
2021/09/27 02:06:39;;;;;;;0.90;0.90;;;;;;;11.20;91.64;102706.53;6263706;28;20189;-72
2021/09/27 02:09:51;;;;;;;1.63;0.90;;;;;;;11.14;92.11;102701.78;6265082;28;20216;-72
2021/09/27 02:13:07;;;;;;;0.73;0.73;;;;;;;11.07;91.93;102706.22;6263344;28;20213;-72
2021/09/27 02:16:18;;;;;;;1.30;0.80;;;;;;;11.05;93.32;102702.81;6264552;28;20185;-71
2021/09/27 02:19:31;;;;;;;0.95;0.90;;;;;;;10.99;93.27;102703.50;6263533;28;20260;-71
2021/09/27 02:22:41;;;;;;;1.00;1.00;;;;;;;10.99;93.64;102714.44;6264375;28;20189;-71
2021/09/27 02:25:46;;;;;;;0.80;0.80;;;;;;;10.96;93.03;102703.88;6263274;28;20196;-72
2021/09/27 02:28:51;;;;;;;1.48;0.90;;;;;;;10.91;93.79;102711.75;6264615;28;20185;-72
2021/09/27 02:32:06;;;;;;;1.30;0.90;;;;;;;11.03;93.18;102710.34;6264340;28;20300;-72
2021/09/27 02:35:15;;;;;;;1.20;1.20;;;;;;;10.96;92.89;102712.09;6263124;28;20185;-71
2021/09/27 02:38:25;;;;;;;0.90;0.90;;;;;;;10.99;93.06;102719.91;6263664;28;20185;-72
2021/09/27 02:41:36;;;;;;;1.00;1.00;;;;;;;11.12;93.08;102725.69;6264229;28;20189;-71
2021/09/27 02:44:40;;;;;;;1.85;0.80;;;;;;;10.96;93.21;102731.19;6264199;28;20260;-71
2021/09/27 02:47:48;;;;;;;0.90;0.90;;;;;;;11.04;93.81;102712.03;6263934;28;20223;-72
2021/09/27 02:50:54;;;;;;;0.80;0.80;;;;;;;10.94;94.71;102716.00;6263695;28;20207;-71
2021/09/27 02:54:00;;;;;;;0.90;0.90;;;;;;;10.94;94.57;102716.84;6262530;28;20284;-72
2021/09/27 02:57:31;;;;;;;1.05;1.05;;;;;;;10.89;94.89;102721.16;6263912;28;20192;-72
2021/09/27 03:00:47;;;;;;;2.92;0.93;;;;;;;10.87;94.58;102721.31;6262411;28;20376;-71
2021/09/27 03:04:03;;;;;;;1.73;0.95;;;;;;;10.84;95.62;102716.19;6264008;28;20393;-71
2021/09/27 03:07:21;;;;;;;1.85;1.00;;;;;;;10.94;93.80;102710.56;6263354;28;20185;-72
2021/09/27 03:10:35;;;;;;;0.85;0.85;;;;;;;10.87;94.39;102726.75;6263317;28;20260;-71
2021/09/27 03:13:51;;;;;;;1.13;0.90;;;;;;;10.84;95.18;102718.91;6263154;28;20212;-71
2021/09/27 03:16:59;;;;;;;0.82;0.82;;;;;;;11.07;96.57;102717.16;6263493;28;20190;-71
2021/09/27 03:20:21;;;;;;;0.85;0.80;;;;;;;10.98;95.39;102712.75;6263484;28;20185;-71
2021/09/27 03:23:34;;;;;;;0.73;0.73;;;;;;;10.85;95.77;102723.34;6262058;28;20418;-71
2021/09/27 03:26:52;;;;;;;0.80;0.80;;;;;;;10.96;94.87;102724.88;6261889;28;20192;-72
2021/09/27 03:30:10;;;;;;;1.15;0.98;;;;;;;10.96;95.61;102730.34;6262960;28;20255;-71
2021/09/27 03:33:26;;;;;;;0.75;0.75;;;;;;;11.04;95.24;102716.66;6262765;28;20217;-72
2021/09/27 03:36:48;;;;;;;4.70;1.20;;;;;;;10.86;95.79;102725.03;6262806;28;20185;-72
2021/09/27 03:40:09;;;;;;;0.93;0.93;;;;;;;10.76;95.49;102724.38;6262698;28;20185;-73
2021/09/27 03:43:22;;;;;;;0.80;0.80;;;;;;;10.73;95.47;102719.28;6262695;28;20193;-71
2021/09/27 03:46:36;;;;;;;1.02;0.80;;;;;;;10.72;95.75;102724.91;6261726;28;20189;-71
2021/09/27 03:49:48;;;;;;;0.90;0.90;;;;;;;10.60;96.29;102724.41;6261513;28;20216;-71
2021/09/27 03:52:59;;;;;;;1.38;0.80;;;;;;;10.73;96.13;102730.22;6261780;28;20415;-72
2021/09/27 03:56:10;;;;;;;1.10;1.08;;;;;;;10.74;96.16;102726.44;6262853;28;20189;-72
2021/09/27 03:59:21;;;;;;;1.75;0.80;;;;;;;10.93;95.94;102726.06;6261627;28;20252;-72
2021/09/27 04:02:35;;;;;;;4.03;1.10;;;;;;;10.91;95.05;102725.41;6261184;28;20431;-72
2021/09/27 04:05:48;;;;;;;0.90;0.90;;;;;;;10.93;95.24;102726.06;6262283;28;20191;-71
2021/09/27 04:09:02;;;;;;;0.90;0.90;;;;;;;10.92;95.64;102723.50;6262759;28;20192;-72
2021/09/27 04:12:15;;;;;;;1.13;1.08;;;;;;;10.92;95.81;102738.00;6262156;28;20457;-72
2021/09/27 04:15:42;;;;;;;0.90;0.90;;;;;;;11.03;95.61;102721.28;6261296;28;20388;-71
2021/09/27 04:18:58;;;;;;;0.90;0.90;;;;;;;11.01;95.84;102728.81;6261284;28;20481;-71
2021/09/27 04:22:11;;;;;;;0.90;0.88;;;;;;;10.94;95.17;102727.75;6262532;28;20220;-72
2021/09/27 04:25:24;;;;;;;1.05;0.80;;;;;;;10.85;95.44;102723.34;6264753;28;20186;-72
2021/09/27 04:29:10;;;;;;;0.90;0.90;;;;;;;10.72;96.35;102717.56;6267366;28;20223;-72
2021/09/27 04:32:29;;;;;;;1.15;1.15;;;;;;;10.79;97.15;102723.19;6266760;28;20185;-71
2021/09/27 04:35:41;;;;;;;1.30;1.30;;;;;;;10.86;95.99;102725.03;6267201;28;20254;-71
2021/09/27 04:38:46;;;;;;;1.13;1.05;;;;;;;10.78;96.30;102722.34;6266854;28;20207;-71
2021/09/27 04:42:09;;;;;;;2.45;1.10;;;;;;;10.77;96.29;102717.91;6266964;28;20248;-71
2021/09/27 04:45:32;;;;;;;1.00;1.00;;;;;;;10.86;95.63;102726.94;6265536;28;20552;-71
2021/09/27 04:48:55;;;;;;;3.53;1.20;;;;;;;10.87;96.80;102732.22;6265659;28;20185;-71
2021/09/27 04:52:18;;;;;;;3.00;1.20;;;;;;;10.80;98.03;102725.75;6266334;28;20192;-71
2021/09/27 04:55:47;;;;;;;3.08;1.20;;;;;;;10.87;97.28;102726.75;6266688;28;20256;-72
2021/09/27 04:59:01;;;;;;;4.47;1.30;;;;;;;10.85;95.76;102739.75;6266486;28;20248;-72
2021/09/27 05:02:24;;;;;;;3.38;1.38;;;;;;;10.88;96.25;102727.63;6266061;28;20207;-72
2021/09/27 05:05:45;;;;;;;2.03;1.40;;;;;;;10.86;96.74;102735.97;6241723;28;20190;-71
2021/09/27 05:09:06;;;;;;;1.63;1.52;;;;;;;10.86;98.83;102730.50;6241638;28;20186;-71
2021/09/27 05:12:47;;;;;;;2.60;1.45;;;;;;;10.74;98.99;102731.91;6241347;28;20193;-72
2021/09/27 05:16:09;;;;;;;2.55;1.55;;;;;;;10.75;99.70;102739.06;6216149;28;20202;-71
2021/09/27 05:19:35;;;;;;;2.35;1.20;;;;;;;10.82;100.00;102744.69;6240246;28;20186;-72
2021/09/27 05:23:07;;;;;;;1.30;1.20;;;;;;;10.92;99.27;102746.22;6239998;28;20412;-72
2021/09/27 05:26:43;;;;;;;4.40;1.20;;;;;;;10.96;97.85;102747.59;6241204;28;20257;-72
2021/09/27 05:30:00;;;;;;;1.45;1.00;;;;;;;10.96;97.99;102747.59;6241120;28;20256;-73
2021/09/27 05:33:17;;;;;;;1.08;1.02;;;;;;;10.99;99.51;102741.75;6240873;28;20213;-73
2021/09/27 05:36:36;;;;;;;2.78;1.17;;;;;;;11.07;97.55;102747.19;6239845;28;20190;-73
2021/09/27 05:39:59;;;;;;;1.02;1.02;;;;;;;11.17;97.34;102744.31;6240053;28;20249;-73
2021/09/27 05:43:21;;;;;;;3.33;1.10;;;;;;;11.00;99.65;102754.41;6239575;28;20253;-72
2021/09/27 05:46:44;;;;;;;2.88;1.00;;;;;;;11.19;98.94;102748.56;6240742;28;20190;-71
2021/09/27 05:49:58;;;;;;;1.10;1.10;;;;;;;11.20;97.59;102741.19;6240240;28;20249;-71
2021/09/27 05:53:11;;;;;;;1.50;1.38;;;;;;;11.24;99.67;102748.88;6239189;28;20193;-73
2021/09/27 05:56:23;;;;;;;1.52;1.52;;;;;;;11.28;100.00;102757.56;6239610;28;20193;-73
2021/09/27 05:59:35;;;;;;;1.60;1.60;;;;;;;11.35;100.00;102752.28;6240203;28;20217;-74
2021/09/27 06:02:55;;;;;;;3.72;1.55;;;;;;;11.35;100.00;102753.09;6243728;28;20236;-71
2021/09/27 06:06:08;;;;;;;3.22;1.52;;;;;;;11.36;100.00;102751.22;6263524;28;20525;-72
2021/09/27 06:09:32;;;;;;;1.17;1.13;;;;;;;11.47;99.96;102750.84;6264678;28;20192;-71
2021/09/27 06:12:44;;;;;;;2.28;1.42;;;;;;;11.50;100.00;102753.22;6264565;28;20192;-72
2021/09/27 06:15:52;;;;;;;1.52;1.00;;;;;;;11.55;100.00;102754.41;6263259;28;20575;-72
2021/09/27 06:19:05;;;;;;;1.27;1.15;;;;;;;11.56;100.00;102749.78;6263877;28;20193;-72
2021/09/27 06:22:21;;;;;;;1.38;1.02;;;;;;;11.51;100.00;102744.84;6263185;28;20468;-72
2021/09/27 06:25:29;;;;;;;4.22;1.25;;;;;;;11.65;100.00;102754.19;6263207;28;20189;-71
2021/09/27 06:28:45;;;;;;;2.53;1.20;;;;;;;11.69;100.00;102755.56;6264116;28;20185;-71
2021/09/27 06:32:00;;;;;;;4.05;1.17;;;;;;;11.73;100.00;102756.94;6262846;28;20523;-72
2021/09/27 06:35:12;;;;;;;4.65;1.20;;;;;;;11.88;100.00;102760.59;6263899;28;20213;-72
2021/09/27 06:38:19;;;;;;;3.22;1.83;;;;;;;11.88;100.00;102758.72;6263588;28;20231;-71
2021/09/27 06:41:25;;;;;;;1.80;1.38;;;;;;;12.12;100.00;102759.63;6264095;28;20189;-71
2021/09/27 06:44:31;;;;;;;1.00;1.00;;;;;;;12.18;100.00;102767.94;6263745;28;20221;-72
2021/09/27 06:47:36;;;;;;;1.40;1.30;;;;;;;12.18;100.00;102767.94;6263386;28;20185;-72
2021/09/27 06:50:40;;;;;;;3.20;1.05;;;;;;;12.26;100.00;102765.16;6262517;28;20472;-71
2021/09/27 06:53:44;;;;;;;2.30;1.20;;;;;;;12.31;100.00;102773.66;6263766;28;20220;-72
2021/09/27 06:56:49;;;;;;;1.30;1.20;;;;;;;12.32;100.00;102772.66;6262846;28;20189;-72
2021/09/27 06:59:58;;;;;;;1.17;1.17;;;;;;;12.36;100.00;102776.72;6262833;28;20201;-71
2021/09/27 07:03:02;;;;;;;4.90;1.50;;;;;;;12.41;100.00;102767.94;6262081;28;20233;-72
2021/09/27 07:06:08;;;;;;;6.03;1.75;;;;;;;12.48;100.00;102772.50;6262671;28;20263;-72
2021/09/27 07:09:14;;;;;;;2.53;1.50;;;;;;;12.54;100.00;102777.25;6263658;28;20186;-72
2021/09/27 07:12:18;;;;;;;1.58;1.48;;;;;;;12.57;100.00;102771.44;6262122;28;20185;-72
2021/09/27 07:15:24;;;;;;;10.25;2.00;;;;;;;12.75;100.00;102781.19;6263435;28;20216;-71
2021/09/27 07:18:28;;;;;;;1.92;1.33;;;;;;;12.74;100.00;102774.00;6263498;28;20192;-72
2021/09/27 07:21:33;;;;;;;5.72;1.10;;;;;;;12.86;99.82;102783.50;6263345;28;20185;-71
2021/09/27 07:24:39;;;;;;;1.42;1.33;;;;;;;13.04;97.78;102773.06;6261797;28;20374;-72
2021/09/27 07:27:44;;;;;;;2.75;1.20;;;;;;;13.04;98.08;102759.34;6262899;28;20185;-71
2021/09/27 07:30:50;;;;;;;6.97;1.40;;;;;;;13.19;96.66;102773.97;6262721;28;20188;-71
2021/09/27 07:33:55;;;;;;;5.25;1.58;;;;;;;13.19;95.86;102779.44;6263017;28;20189;-71
2021/09/27 07:36:59;;;;;;;1.95;1.15;;;;;;;13.29;94.62;102785.50;6262642;28;20231;-71
2021/09/27 07:40:04;;;;;;;1.52;1.45;;;;;;;13.38;93.58;102769.81;6262707;28;20185;-72
2021/09/27 07:43:09;;;;;;;3.60;1.02;;;;;;;13.48;91.97;102781.34;6263035;28;20185;-72
2021/09/27 07:46:18;;;;;;;1.70;1.33;;;;;;;13.52;91.79;102769.81;6262098;28;20196;-72
2021/09/27 07:49:23;;;;;;;2.60;1.10;;;;;;;13.66;90.38;102770.84;6262905;28;20255;-72
2021/09/27 07:52:29;;;;;;;1.10;1.10;;;;;;;13.78;88.99;102763.81;6262844;28;20222;-73
2021/09/27 07:55:33;;;;;;;3.70;1.10;;;;;;;13.81;88.51;102764.28;6261754;28;20254;-72
2021/09/27 07:58:37;;;;;;;2.40;1.00;;;;;;;13.84;87.79;102767.69;6263053;28;20488;-72
2021/09/27 08:01:43;;;;;;;1.40;1.00;;;;;;;13.84;88.70;102773.19;6266709;28;20405;-72
2021/09/27 08:04:48;;;;;;;1.35;0.82;;;;;;;14.01;85.29;102769.16;6267112;28;20278;-72
2021/09/27 08:07:52;;;;;;;4.07;1.25;;;;;;;14.13;84.03;102773.09;6267764;28;20184;-73
2021/09/27 08:10:57;;;;;;;1.00;1.00;;;;;;;14.13;84.00;102767.59;6266530;28;20191;-72
2021/09/27 08:14:01;;;;;;;1.10;1.08;;;;;;;14.06;83.95;102773.03;6267525;28;20251;-73
2021/09/27 08:17:07;;;;;;;1.10;1.10;;;;;;;14.18;83.41;102767.88;6266477;28;20234;-72
2021/09/27 08:20:14;;;;;;;7.47;1.10;;;;;;;14.24;83.54;102769.84;6267159;28;20192;-72
2021/09/27 08:23:20;;;;;;;2.17;1.30;;;;;;;14.28;82.19;102765.66;6267118;28;20196;-72
2021/09/27 08:26:24;;;;;;;3.45;1.00;;;;;;;14.37;81.63;102775.53;6266456;28;20188;-72
2021/09/27 08:29:29;;;;;;;1.80;1.00;;;;;;;14.44;80.79;102765.44;6266698;28;20189;-72
2021/09/27 08:32:34;;;;;;;1.10;1.10;;;;;;;14.38;81.69;102763.47;6265860;28;20491;-72
2021/09/27 08:35:39;;;;;;;1.10;1.00;;;;;;;14.44;80.10;102765.44;6266657;28;20286;-72
2021/09/27 08:38:45;;;;;;;1.38;1.30;;;;;;;14.52;78.35;102779.06;6266791;28;20192;-73
2021/09/27 08:41:53;;;;;;;4.20;1.40;;;;;;;14.60;77.09;102767.94;6266548;28;20185;-73
2021/09/27 08:45:03;;;;;;;12.30;1.50;;;;;;;14.51;77.64;102773.78;6266483;28;20220;-72
2021/09/27 08:48:25;;;;;;;1.65;1.10;;;;;;;14.56;77.30;102777.59;6265446;28;20472;-73
2021/09/27 08:51:31;;;;;;;0.90;0.90;;;;;;;14.65;76.02;102779.19;6266764;28;20188;-72
2021/09/27 08:54:36;;;;;;;3.67;1.10;;;;;;;14.64;76.27;102771.97;6265725;28;20185;-72
2021/09/27 08:57:49;;;;;;;1.50;1.20;;;;;;;14.68;76.40;102778.78;6265597;28;20189;-72
2021/09/27 09:01:17;;;;;;;2.17;1.02;;;;;;;14.71;74.71;102783.03;6266251;28;20239;-73
2021/09/27 09:04:29;;;;;;;3.85;1.30;;;;;;;14.81;74.19;102773.44;6266399;28;20242;-72
2021/09/27 09:07:44;;;;;;;1.05;1.02;;;;;;;14.65;76.14;102770.09;6264902;28;20189;-72
2021/09/27 09:10:54;;;;;;;1.10;0.90;;;;;;;14.80;74.11;102771.72;6265622;28;20185;-72
2021/09/27 09:14:05;;;;;;;3.38;1.10;;;;;;;14.92;73.52;102769.25;6265838;28;20189;-72
2021/09/27 09:17:17;;;;;;;0.80;0.80;;;;;;;14.93;73.15;102782.81;6264788;28;20405;-72
2021/09/27 09:20:26;;;;;;;1.60;1.00;;;;;;;14.91;73.32;102784.06;6264697;28;20231;-72
2021/09/27 09:23:36;;;;;;;2.47;1.08;;;;;;;14.97;73.03;102788.78;6264771;28;20185;-73
2021/09/27 09:26:43;;;;;;;1.13;1.00;;;;;;;14.83;74.99;102787.81;6265110;28;20256;-72
2021/09/27 09:29:50;;;;;;;1.00;1.00;;;;;;;14.94;73.00;102790.03;6265683;28;20185;-72
2021/09/27 09:32:54;;;;;;;6.47;0.80;;;;;;;14.93;73.73;102777.31;6265711;28;20191;-72
2021/09/27 09:36:00;;;;;;;2.30;0.90;;;;;;;14.99;72.68;102789.44;6265322;28;20310;-72
2021/09/27 09:39:14;;;;;;;1.13;1.02;;;;;;;15.04;72.00;102779.53;6265607;28;20185;-72
2021/09/27 09:42:28;;;;;;;2.17;1.00;;;;;;;15.12;71.95;102792.28;6264243;28;20217;-72
2021/09/27 09:45:41;;;;;;;0.77;0.77;;;;;;;15.20;71.90;102788.53;6265469;28;20189;-73
2021/09/27 09:49:03;;;;;;;3.08;1.02;;;;;;;15.22;71.28;102791.91;6264988;28;20232;-71
2021/09/27 09:52:12;;;;;;;2.72;1.05;;;;;;;15.21;71.12;102791.06;6264647;28;20185;-72
2021/09/27 09:55:20;;;;;;;1.10;0.90;;;;;;;15.24;70.46;102792.56;6264744;28;20191;-72
2021/09/27 09:58:38;;;;;;;2.17;0.93;;;;;;;15.20;71.88;102772.84;6264796;28;20195;-72
2021/09/27 10:01:42;;;;;;;2.10;0.85;;;;;;;15.24;72.39;102767.81;6264144;28;20398;-72
2021/09/27 10:04:51;;;;;;;2.85;1.05;;;;;;;15.37;70.62;102784.41;6264095;28;20362;-72
2021/09/27 10:07:59;;;;;;;2.70;1.17;;;;;;;15.39;70.36;102782.28;6263800;28;20497;-72
2021/09/27 10:11:06;;;;;;;3.20;1.23;;;;;;;15.47;69.56;102784.91;6263527;28;20412;-72
2021/09/27 10:14:24;;;;;;;4.57;1.20;;;;;;;15.41;69.29;102781.03;6264348;28;20216;-71
2021/09/27 10:17:32;;;;;;;1.17;0.90;;;;;;;15.40;70.98;102784.00;6264080;28;20252;-72
2021/09/27 10:20:39;;;;;;;6.75;1.27;;;;;;;15.47;69.40;102784.91;6264473;28;20192;-72
2021/09/27 10:23:47;;;;;;;5.47;1.30;;;;;;;15.47;69.88;102782.16;6262164;28;20535;-72
2021/09/27 10:26:54;;;;;;;4.93;1.17;;;;;;;15.52;69.51;102777.75;6263243;28;20500;-72
2021/09/27 10:30:02;;;;;;;7.30;1.40;;;;;;;15.55;67.56;102782.00;6264041;28;20283;-72
2021/09/27 10:33:15;;;;;;;1.20;1.20;;;;;;;15.63;67.68;102779.94;6262858;28;20185;-72
2021/09/27 10:36:23;;;;;;;1.40;1.27;;;;;;;15.74;68.77;102780.44;6263874;28;20240;-71
2021/09/27 10:39:31;;;;;;;1.85;1.25;;;;;;;15.67;69.24;102774.88;6263235;28;20185;-72
2021/09/27 10:42:44;;;;;;;1.42;1.20;;;;;;;15.69;67.10;102772.75;6262481;28;20381;-72
2021/09/27 10:45:52;;;;;;;6.47;1.08;;;;;;;15.69;65.97;102778.25;6262936;28;20244;-72
2021/09/27 10:48:56;;;;;;;7.43;1.13;;;;;;;15.76;65.58;102784.66;6263664;28;20243;-72
2021/09/27 10:52:13;;;;;;;1.30;1.30;;;;;;;15.84;64.96;102792.75;6262541;28;20544;-72
2021/09/27 10:55:27;;;;;;;5.07;1.13;;;;;;;15.79;64.95;102792.53;6263653;28;20185;-72
2021/09/27 10:58:44;;;;;;;0.90;0.90;;;;;;;15.77;64.66;102791.84;6262265;28;20519;-72
2021/09/27 11:01:53;;;;;;;1.13;0.95;;;;;;;15.77;67.00;102780.84;6263606;28;20239;-72
2021/09/27 11:05:14;;;;;;;1.10;1.10;;;;;;;15.82;67.42;102781.06;6263217;28;20450;-72
2021/09/27 11:08:41;;;;;;;2.35;1.00;;;;;;;15.88;66.52;102785.78;6263288;28;20252;-73
2021/09/27 11:11:57;;;;;;;1.00;1.00;;;;;;;15.88;66.24;102783.03;6262090;28;20184;-72
2021/09/27 11:15:07;;;;;;;2.88;1.10;;;;;;;15.90;65.82;102778.16;6262138;28;20375;-73
2021/09/27 11:18:25;;;;;;;2.90;0.95;;;;;;;16.01;64.87;102774.81;6263046;28;20216;-73
2021/09/27 11:21:44;;;;;;;0.90;0.90;;;;;;;15.98;65.72;102769.72;6262341;28;20465;-72
2021/09/27 11:24:52;;;;;;;1.52;0.90;;;;;;;15.93;64.42;102775.00;6262951;28;20192;-72
2021/09/27 11:28:13;;;;;;;5.25;0.80;;;;;;;16.00;65.24;102778.63;6262901;28;20256;-72
2021/09/27 11:31:39;;;;;;;1.33;1.27;;;;;;;15.96;65.06;102773.72;6261842;28;20410;-72
2021/09/27 11:34:55;;;;;;;3.13;1.05;;;;;;;15.99;64.34;102779.69;6261585;28;20349;-72
2021/09/27 11:38:26;;;;;;;2.50;0.82;;;;;;;16.01;62.78;102772.06;6262263;28;20208;-73
2021/09/27 11:41:32;;;;;;;3.40;0.90;;;;;;;15.99;63.11;102776.94;6261662;28;20449;-73
2021/09/27 11:44:51;;;;;;;8.27;1.00;;;;;;;16.07;62.83;102775.91;6262826;28;20233;-73
2021/09/27 11:48:03;;;;;;;1.05;0.80;;;;;;;15.98;61.71;102777.97;6262233;28;20189;-72
2021/09/27 11:51:26;;;;;;;5.03;0.80;;;;;;;16.02;61.50;102779.25;6261354;28;20193;-74
2021/09/27 11:54:37;;;;;;;3.10;0.80;;;;;;;15.96;62.76;102763.56;6261378;28;20474;-71
2021/09/27 11:57:47;;;;;;;1.65;0.70;;;;;;;16.06;62.41;102769.53;6261626;28;20559;-73
2021/09/27 12:01:04;;;;;;;3.92;1.05;;;;;;;16.08;63.61;102761.91;6261149;28;20216;-74
2021/09/27 12:04:20;;;;;;;1.30;0.90;;;;;;;16.05;61.54;102759.56;6262064;28;20300;-71
2021/09/27 12:07:36;;;;;;;0.95;0.90;;;;;;;16.04;59.78;102760.66;6262527;28;20189;-71
2021/09/27 12:10:47;;;;;;;0.80;0.80;;;;;;;16.02;60.05;102764.66;6261104;28;20522;-71
2021/09/27 12:13:55;;;;;;;0.82;0.82;;;;;;;16.05;58.92;102756.81;6262136;28;20185;-72
2021/09/27 12:17:07;;;;;;;8.15;1.20;;;;;;;15.96;58.17;102763.56;6262274;28;20212;-71
2021/09/27 12:20:15;;;;;;;0.70;0.70;;;;;;;15.98;57.76;102758.72;6262207;28;20184;-71
2021/09/27 12:23:19;;;;;;;1.65;0.80;;;;;;;15.98;58.16;102757.84;6262193;28;20204;-71
2021/09/27 12:26:28;;;;;;;0.80;0.80;;;;;;;15.97;57.32;102753.41;6261284;28;20217;-71
2021/09/27 12:29:33;;;;;;;0.80;0.80;;;;;;;15.95;58.06;102761.88;6260958;28;20225;-71
2021/09/27 12:32:42;;;;;;;0.75;0.75;;;;;;;16.05;57.44;102751.31;6261229;28;20195;-71
2021/09/27 12:35:48;;;;;;;3.75;0.90;;;;;;;15.89;57.47;102754.47;6260981;28;20478;-72
2021/09/27 12:38:55;;;;;;;4.57;1.00;;;;;;;15.96;57.38;102754.47;6261482;28;20259;-71
2021/09/27 12:42:01;;;;;;;1.50;0.80;;;;;;;15.87;58.26;102742.78;6262033;28;20185;-71
2021/09/27 12:45:15;;;;;;;4.13;0.75;;;;;;;15.96;57.98;102741.56;6262895;28;20223;-71
2021/09/27 12:48:25;;;;;;;2.72;0.85;;;;;;;15.93;58.46;102736.47;6266442;28;20227;-71
2021/09/27 12:51:34;;;;;;;0.73;0.73;;;;;;;15.83;58.69;102736.00;6266364;28;20196;-71
2021/09/27 12:54:43;;;;;;;2.50;1.30;;;;;;;15.90;59.55;102736.88;6266199;28;20189;-72
2021/09/27 12:57:51;;;;;;;5.05;1.08;;;;;;;15.89;60.10;102746.19;6266564;28;20278;-72
2021/09/27 13:00:55;;;;;;;1.70;1.30;;;;;;;15.91;60.47;102741.31;6265028;28;20185;-72
2021/09/27 13:04:03;;;;;;;3.00;1.00;;;;;;;15.87;60.00;102736.44;6265471;28;20240;-72
2021/09/27 13:07:11;;;;;;;0.80;0.80;;;;;;;15.78;60.66;102744.03;6266119;28;20185;-72
2021/09/27 13:10:24;;;;;;;3.35;0.75;;;;;;;15.84;61.04;102737.72;6266163;28;20225;-71
2021/09/27 13:13:32;;;;;;;5.28;0.93;;;;;;;15.94;62.12;102727.16;6264930;28;20384;-72
2021/09/27 13:16:39;;;;;;;5.28;0.85;;;;;;;15.73;64.73;102735.53;6264945;28;20480;-72
2021/09/27 13:19:48;;;;;;;1.65;1.30;;;;;;;15.72;64.88;102733.81;6266508;28;20278;-72
2021/09/27 13:22:52;;;;;;;4.10;1.15;;;;;;;15.65;65.57;102738.47;6264758;28;20499;-72
2021/09/27 13:26:04;;;;;;;0.80;0.80;;;;;;;15.79;64.83;102745.75;6264615;28;20360;-72
2021/09/27 13:29:27;;;;;;;3.85;1.05;;;;;;;15.91;64.38;102737.72;6264526;28;20506;-72
2021/09/27 13:32:35;;;;;;;1.75;1.10;;;;;;;16.10;62.07;102737.75;6265498;28;20205;-72
2021/09/27 13:35:56;;;;;;;2.90;0.80;;;;;;;16.40;60.76;102723.63;6264340;28;20185;-72
2021/09/27 13:39:05;;;;;;;2.63;0.80;;;;;;;16.18;62.00;102733.97;6265059;28;20280;-72
2021/09/27 13:42:11;;;;;;;1.35;0.70;;;;;;;15.89;61.72;102735.19;6265449;28;20185;-72
2021/09/27 13:45:28;;;;;;;0.90;0.90;;;;;;;16.02;61.28;102724.19;6265005;28;20184;-72
2021/09/27 13:48:32;;;;;;;2.53;0.82;;;;;;;16.58;60.49;102729.41;6265397;28;20189;-72
2021/09/27 13:51:38;;;;;;;0.75;0.75;;;;;;;17.97;54.99;102726.16;6265281;28;20253;-72
2021/09/27 13:54:43;;;;;;;0.95;0.95;;;;;;;17.68;55.09;102732.22;6265270;28;20382;-72
2021/09/27 13:57:47;;;;;;;0.73;0.73;;;;;;;16.76;56.38;102733.25;6264673;28;20314;-72
2021/09/27 14:00:52;;;;;;;1.00;1.00;;;;;;;17.28;55.70;102729.56;6264310;28;20192;-72
2021/09/27 14:03:57;;;;;;;0.77;0.77;;;;;;;17.50;56.44;102725.47;6264713;28;20291;-72
2021/09/27 14:07:05;;;;;;;0.95;0.93;;;;;;;16.88;58.74;102730.69;6264745;28;20196;-72
2021/09/27 14:10:13;;;;;;;0.75;0.73;;;;;;;16.98;58.58;102725.56;6264749;28;20189;-71
2021/09/27 14:13:37;;;;;;;1.00;1.00;;;;;;;16.52;60.92;102719.19;6262955;28;20468;-71
2021/09/27 14:16:41;;;;;;;0.88;0.88;;;;;;;17.38;58.62;102720.84;6263658;28;20185;-72
2021/09/27 14:19:45;;;;;;;1.00;1.00;;;;;;;16.53;60.91;102735.56;6264170;28;20220;-72
2021/09/27 14:22:50;;;;;;;0.77;0.77;;;;;;;16.14;61.68;102736.31;6264290;28;20263;-72
2021/09/27 14:25:55;;;;;;;2.15;0.80;;;;;;;16.05;61.23;102729.28;6263681;28;20207;-72
2021/09/27 14:28:59;;;;;;;0.90;0.90;;;;;;;16.00;62.34;102737.31;6263745;28;20189;-72
2021/09/27 14:32:04;;;;;;;0.63;0.63;;;;;;;15.87;62.31;102731.75;6262723;28;20469;-72
2021/09/27 14:35:10;;;;;;;0.75;0.75;;;;;;;15.79;63.95;102739.38;6263706;28;20192;-72
2021/09/27 14:38:16;;;;;;;0.70;0.70;;;;;;;15.63;64.09;102727.66;6263866;28;20192;-71
2021/09/27 14:41:21;;;;;;;0.70;0.70;;;;;;;15.51;65.10;102731.22;6263907;28;20185;-72
2021/09/27 14:44:25;;;;;;;0.80;0.80;;;;;;;15.50;65.94;102729.50;6262654;28;20185;-72
2021/09/27 14:47:29;;;;;;;0.90;0.90;;;;;;;15.41;66.36;102726.03;6262334;28;20384;-72
2021/09/27 14:50:36;;;;;;;1.55;0.70;;;;;;;15.39;66.93;102722.63;6263596;28;20195;-72